createdAt,value
2018-09-24T00:00:37.650Z,13.30
2018-09-24T00:03:06.209Z,13.27
2018-09-24T00:05:34.660Z,12.96
2018-09-24T00:08:03.077Z,13.00
2018-09-24T00:10:31.510Z,13.16
2018-09-24T00:12:59.913Z,13.29
2018-09-24T00:15:28.352Z,13.41
2018-09-24T00:17:56.741Z,13.47
2018-09-24T00:20:25.166Z,13.59
2018-09-24T00:22:53.708Z,13.50
2018-09-24T00:25:22.152Z,13.62
2018-09-24T00:27:50.545Z,13.68
2018-09-24T00:30:18.997Z,13.66
2018-09-24T00:32:47.638Z,13.59
2018-09-24T00:35:16.094Z,13.69
2018-09-24T00:37:44.578Z,13.67
2018-09-24T00:40:13.365Z,13.70
2018-09-24T00:42:42.074Z,13.62
2018-09-24T00:45:10.515Z,13.59
2018-09-24T00:47:38.938Z,13.53
2018-09-24T00:50:07.422Z,13.59
2018-09-24T00:52:35.822Z,13.65
2018-09-24T00:55:04.258Z,13.56
2018-09-24T00:57:32.690Z,13.51
2018-09-24T01:00:01.098Z,13.37
2018-09-24T01:02:29.513Z,13.28
2018-09-24T01:04:57.897Z,13.28
2018-09-24T01:07:26.349Z,13.21
2018-09-24T01:09:54.737Z,13.19
2018-09-24T01:12:23.185Z,13.20
2018-09-24T01:14:51.598Z,13.26
2018-09-24T01:17:20.033Z,13.21
2018-09-24T01:19:48.409Z,13.25
2018-09-24T01:22:16.833Z,13.19
2018-09-24T01:24:45.222Z,13.23
2018-09-24T01:27:13.649Z,13.19
2018-09-24T01:29:42.046Z,13.34
2018-09-24T01:32:10.477Z,13.41
2018-09-24T01:34:38.895Z,13.30
2018-09-24T01:37:07.443Z,13.39
2018-09-24T01:39:35.841Z,13.47
2018-09-24T01:42:04.330Z,13.40
2018-09-24T01:44:32.754Z,13.47
2018-09-24T01:47:01.977Z,13.31
2018-09-24T01:49:30.366Z,13.12
2018-09-24T01:51:58.802Z,13.20
2018-09-24T01:54:29.582Z,13.16
2018-09-24T01:56:57.994Z,13.07
2018-09-24T01:59:26.482Z,13.12
2018-09-24T02:01:54.895Z,13.05
2018-09-24T02:04:23.327Z,13.05
2018-09-24T02:06:55.918Z,13.01
2018-09-24T02:09:24.341Z,13.08
2018-09-24T02:11:52.725Z,13.13
2018-09-24T02:14:21.158Z,13.18
2018-09-24T02:16:49.573Z,13.16
2018-09-24T02:19:17.997Z,13.10
2018-09-24T02:21:46.397Z,12.95
2018-09-24T02:24:14.860Z,12.63
2018-09-24T02:26:43.241Z,12.76
2018-09-24T02:29:11.706Z,12.72
2018-09-24T02:31:40.234Z,12.73
2018-09-24T02:34:10.186Z,12.63
2018-09-24T02:36:38.598Z,12.57
2018-09-24T02:39:08.415Z,12.60
2018-09-24T02:41:36.894Z,12.70
2018-09-24T02:44:05.562Z,12.62
2018-09-24T02:46:36.491Z,12.61
2018-09-24T02:49:04.935Z,12.63
2018-09-24T02:51:33.395Z,12.75
2018-09-24T02:54:01.947Z,12.84
2018-09-24T02:56:30.406Z,12.88
2018-09-24T02:58:58.845Z,12.80
2018-09-24T03:01:32.620Z,12.67
2018-09-24T03:04:01.546Z,12.69
2018-09-24T03:06:36.122Z,12.72
2018-09-24T03:09:08.325Z,12.63
2018-09-24T03:11:36.790Z,12.69
2018-09-24T03:14:05.501Z,12.62
2018-09-24T03:16:34.118Z,12.54
2018-09-24T03:19:02.884Z,12.63
2018-09-24T03:21:31.363Z,12.74
2018-09-24T03:24:00.074Z,12.73
2018-09-24T03:26:28.580Z,12.64
2018-09-24T03:28:56.962Z,12.64
2018-09-24T03:31:25.389Z,12.83
2018-09-24T03:33:53.785Z,12.86
2018-09-24T03:36:22.235Z,12.95
2018-09-24T03:38:50.667Z,12.87
2018-09-24T03:41:19.125Z,12.81
2018-09-24T03:43:47.542Z,12.66
2018-09-24T03:46:15.950Z,12.53
2018-09-24T03:48:44.387Z,12.59
2018-09-24T03:51:12.782Z,12.75
2018-09-24T03:53:41.218Z,12.87
2018-09-24T03:56:09.610Z,12.83
2018-09-24T03:58:38.058Z,12.56
2018-09-24T04:01:06.454Z,12.32
2018-09-24T04:03:34.884Z,12.32
2018-09-24T04:06:08.866Z,12.28
2018-09-24T04:08:42.630Z,12.30
2018-09-24T04:11:16.281Z,12.29
2018-09-24T04:13:50.129Z,12.19
2018-09-24T04:16:23.771Z,12.11
2018-09-24T04:18:57.323Z,12.05
2018-09-24T04:21:30.950Z,12.00
2018-09-24T04:24:04.486Z,11.78
2018-09-24T04:26:38.313Z,11.64
2018-09-24T04:29:12.386Z,11.63
2018-09-24T04:31:46.029Z,11.80
2018-09-24T04:34:19.614Z,11.69
2018-09-24T04:36:53.286Z,11.59
2018-09-24T04:39:27.130Z,11.63
2018-09-24T04:42:00.647Z,11.53
2018-09-24T04:44:34.222Z,11.33
2018-09-24T04:47:08.030Z,11.37
2018-09-24T04:49:41.810Z,11.43
2018-09-24T04:52:15.669Z,11.46
2018-09-24T04:54:49.227Z,11.44
2018-09-24T04:57:22.987Z,11.30
2018-09-24T04:59:56.685Z,11.31
2018-09-24T05:02:30.398Z,11.42
2018-09-24T05:05:04.318Z,11.47
2018-09-24T05:07:38.690Z,11.61
2018-09-24T05:10:12.443Z,11.51
2018-09-24T05:12:46.546Z,11.47
2018-09-24T05:15:20.314Z,11.51
2018-09-24T05:17:54.058Z,11.47
2018-09-24T05:20:27.678Z,11.51
2018-09-24T05:23:01.415Z,11.50
2018-09-24T05:25:35.139Z,11.23
2018-09-24T05:28:08.927Z,11.20
2018-09-24T05:30:42.731Z,11.19
2018-09-24T05:33:16.309Z,11.28
2018-09-24T05:35:49.857Z,11.29
2018-09-24T05:38:23.654Z,11.30
2018-09-24T05:40:57.320Z,11.29
2018-09-24T05:43:30.954Z,11.37
2018-09-24T05:46:04.756Z,11.34
2018-09-24T05:48:38.378Z,11.22
2018-09-24T05:51:12.322Z,11.34
2018-09-24T05:53:45.866Z,11.39
2018-09-24T05:56:19.631Z,11.31
2018-09-24T05:58:53.239Z,11.42
2018-09-24T06:01:26.818Z,11.34
2018-09-24T06:04:00.625Z,11.40
2018-09-24T06:06:34.132Z,11.34
2018-09-24T06:09:07.937Z,11.46
2018-09-24T06:11:41.825Z,11.71
2018-09-24T06:14:15.647Z,11.63
2018-09-24T06:16:49.202Z,11.38
2018-09-24T06:19:22.970Z,11.49
2018-09-24T06:21:56.741Z,11.48
2018-09-24T06:24:30.203Z,11.35
2018-09-24T06:27:04.050Z,11.49
2018-09-24T06:29:38.609Z,11.74
2018-09-24T06:32:12.461Z,11.85
2018-09-24T06:34:46.089Z,11.97
2018-09-24T06:37:19.877Z,12.02
2018-09-24T06:39:53.459Z,11.98
2018-09-24T06:42:27.658Z,11.95
2018-09-24T06:45:01.342Z,11.99
2018-09-24T06:47:35.085Z,11.60
2018-09-24T06:50:09.660Z,11.60
2018-09-24T06:52:43.225Z,11.50
2018-09-24T06:55:16.973Z,11.46
2018-09-24T06:57:50.818Z,11.37
2018-09-24T07:00:24.678Z,11.46
2018-09-24T07:02:58.493Z,11.43
2018-09-24T07:05:32.265Z,11.46
2018-09-24T07:08:06.591Z,11.43
2018-09-24T07:10:40.297Z,11.55
2018-09-24T07:13:14.070Z,11.50
2018-09-24T07:15:47.880Z,11.56
2018-09-24T07:18:21.691Z,11.90
2018-09-24T07:20:55.336Z,11.99
2018-09-24T07:23:29.128Z,12.14
2018-09-24T07:26:02.892Z,12.23
2018-09-24T07:28:37.314Z,12.22
2018-09-24T07:31:11.088Z,12.26
2018-09-24T07:33:44.940Z,12.18
2018-09-24T07:36:18.598Z,12.16
2018-09-24T07:38:52.350Z,12.05
2018-09-24T07:41:26.066Z,11.85
2018-09-24T07:43:59.670Z,11.87
2018-09-24T07:46:33.224Z,12.00
2018-09-24T07:49:06.902Z,12.30
2018-09-24T07:51:40.606Z,12.64
2018-09-24T07:54:14.386Z,12.95
2018-09-24T07:56:48.002Z,13.09
2018-09-24T07:59:21.821Z,13.12
2018-09-24T08:01:55.611Z,12.92
2018-09-24T08:04:29.417Z,12.33
2018-09-24T08:07:03.056Z,12.69
2018-09-24T08:09:37.247Z,13.07
2018-09-24T08:12:11.083Z,13.14
2018-09-24T08:14:44.882Z,13.21
2018-09-24T08:17:18.643Z,12.74
2018-09-24T08:19:52.410Z,12.53
2018-09-24T08:22:27.865Z,12.49
2018-09-24T08:25:01.437Z,12.11
2018-09-24T08:27:35.011Z,12.16
2018-09-24T08:30:09.032Z,12.71
2018-09-24T08:32:42.731Z,13.34
2018-09-24T08:35:16.457Z,13.40
2018-09-24T08:37:50.241Z,13.38
2018-09-24T08:40:23.894Z,13.50
2018-09-24T08:42:57.454Z,13.57
2018-09-24T08:45:31.300Z,13.85
2018-09-24T08:48:05.007Z,14.20
2018-09-24T08:50:39.344Z,14.36
2018-09-24T08:53:13.126Z,14.15
2018-09-24T08:55:46.880Z,13.80
2018-09-24T08:58:20.574Z,13.93
2018-09-24T09:00:55.439Z,13.82
2018-09-24T09:03:29.168Z,13.51
2018-09-24T09:06:04.151Z,13.19
2018-09-24T09:08:37.785Z,13.10
2018-09-24T09:11:11.498Z,13.18
2018-09-24T09:13:45.018Z,13.75
2018-09-24T09:16:18.745Z,14.15
2018-09-24T09:18:52.331Z,14.34
2018-09-24T09:21:26.157Z,14.21
2018-09-24T09:23:59.928Z,13.89
2018-09-24T09:26:33.638Z,13.59
2018-09-24T09:29:07.454Z,13.59
2018-09-24T09:31:41.205Z,13.81
2018-09-24T09:34:14.846Z,13.86
2018-09-24T09:36:48.709Z,13.89
2018-09-24T09:39:22.351Z,14.07
2018-09-24T09:41:56.178Z,14.13
2018-09-24T09:44:29.833Z,14.06
2018-09-24T09:47:03.654Z,14.08
2018-09-24T09:49:37.383Z,14.12
2018-09-24T09:52:11.232Z,14.19
2018-09-24T09:54:44.906Z,14.30
2018-09-24T09:57:18.477Z,13.99
2018-09-24T09:59:52.379Z,14.11
2018-09-24T10:02:28.061Z,14.10
2018-09-24T10:05:02.296Z,14.09
2018-09-24T10:07:38.375Z,14.04
2018-09-24T10:10:25.213Z,14.08
2018-09-24T10:13:11.427Z,14.03
2018-09-24T10:15:45.650Z,13.68
2018-09-24T10:18:19.542Z,13.51
2018-09-24T10:20:53.131Z,13.68
2018-09-24T10:23:26.657Z,14.06
2018-09-24T10:26:00.393Z,14.45
2018-09-24T10:28:34.219Z,14.36
2018-09-24T10:31:08.681Z,14.21
2018-09-24T10:33:42.350Z,14.07
2018-09-24T10:36:15.965Z,13.99
2018-09-24T10:38:49.688Z,13.89
2018-09-24T10:41:23.429Z,13.97
2018-09-24T10:43:57.263Z,13.77
2018-09-24T10:46:30.926Z,13.76
2018-09-24T10:49:04.666Z,14.11
2018-09-24T10:51:38.387Z,14.53
2018-09-24T10:54:12.306Z,14.76
2018-09-24T10:56:46.356Z,14.89
2018-09-24T10:59:20.004Z,14.83
2018-09-24T11:01:53.839Z,14.64
2018-09-24T11:04:27.587Z,14.31
2018-09-24T11:07:01.234Z,14.33
2018-09-24T11:09:34.978Z,14.48
2018-09-24T11:12:08.741Z,14.62
2018-09-24T11:14:42.600Z,14.73
2018-09-24T11:17:16.377Z,14.33
2018-09-24T11:19:49.954Z,14.51
2018-09-24T11:22:23.700Z,14.34
2018-09-24T11:24:57.321Z,14.40
2018-09-24T11:27:31.279Z,14.61
2018-09-24T11:30:04.954Z,14.77
2018-09-24T11:32:38.710Z,14.92
2018-09-24T11:35:12.367Z,15.13
2018-09-24T11:37:46.129Z,15.20
2018-09-24T11:40:19.941Z,14.99
2018-09-24T11:42:53.782Z,14.85
2018-09-24T11:45:27.385Z,14.56
2018-09-24T11:48:01.850Z,14.50
2018-09-24T11:50:37.474Z,14.53
2018-09-24T11:53:11.158Z,14.50
2018-09-24T11:55:44.963Z,14.42
2018-09-24T11:58:18.793Z,14.57
2018-09-24T12:00:52.350Z,14.76
2018-09-24T12:03:26.090Z,14.71
2018-09-24T12:05:59.787Z,14.53
2018-09-24T12:08:33.462Z,14.58
2018-09-24T12:11:07.221Z,14.65
2018-09-24T12:13:40.957Z,14.60
2018-09-24T12:16:14.917Z,14.82
2018-09-24T12:18:48.670Z,14.94
2018-09-24T12:21:22.162Z,15.20
2018-09-24T12:23:55.849Z,15.35
2018-09-24T12:26:30.036Z,15.24
2018-09-24T12:29:03.796Z,15.17
2018-09-24T12:31:37.709Z,15.08
2018-09-24T12:34:11.577Z,14.90
2018-09-24T12:36:45.592Z,14.75
2018-09-24T12:39:19.250Z,14.50
2018-09-24T12:41:52.938Z,14.42
2018-09-24T12:44:26.650Z,14.40
2018-09-24T12:47:00.451Z,13.97
2018-09-24T12:49:34.242Z,14.02
2018-09-24T12:52:08.163Z,14.33
2018-09-24T12:54:41.805Z,14.66
2018-09-24T12:57:15.621Z,14.97
2018-09-24T12:59:49.350Z,14.92
2018-09-24T13:02:23.010Z,14.56
2018-09-24T13:04:56.718Z,14.37
2018-09-24T13:07:30.418Z,14.48
2018-09-24T13:10:03.981Z,14.43
2018-09-24T13:12:37.759Z,14.56
2018-09-24T13:15:11.575Z,14.26
2018-09-24T13:17:45.146Z,14.22
2018-09-24T13:20:18.706Z,14.39
2018-09-24T13:22:52.391Z,14.57
2018-09-24T13:25:26.049Z,14.52
2018-09-24T13:27:59.768Z,14.42
2018-09-24T13:30:33.417Z,14.31
2018-09-24T13:33:07.249Z,14.39
2018-09-24T13:35:40.937Z,14.59
2018-09-24T13:38:14.729Z,14.85
2018-09-24T13:40:48.413Z,15.08
2018-09-24T13:43:22.316Z,15.27
2018-09-24T13:45:55.934Z,15.29
2018-09-24T13:48:30.197Z,15.34
2018-09-24T13:51:03.998Z,15.30
2018-09-24T13:53:38.625Z,15.31
2018-09-24T13:56:12.278Z,15.36
2018-09-24T13:58:45.774Z,15.51
2018-09-24T14:01:19.361Z,15.70
2018-09-24T14:03:52.897Z,15.26
2018-09-24T14:06:26.549Z,14.91
2018-09-24T14:09:00.373Z,14.87
2018-09-24T14:11:40.465Z,14.86
2018-09-24T14:14:14.253Z,14.84
2018-09-24T14:16:47.796Z,15.43
2018-09-24T14:19:21.572Z,16.04
2018-09-24T14:21:55.205Z,16.26
2018-09-24T14:24:29.009Z,16.30
2018-09-24T14:27:02.669Z,16.30
2018-09-24T14:29:37.018Z,16.51
2018-09-24T14:32:10.730Z,16.83
2018-09-24T14:34:44.550Z,16.39
2018-09-24T14:37:18.313Z,16.31
2018-09-24T14:39:51.834Z,16.75
2018-09-24T14:42:25.510Z,17.03
2018-09-24T14:44:59.353Z,17.07
2018-09-24T14:47:33.017Z,17.44
2018-09-24T14:50:06.602Z,17.54
2018-09-24T14:52:40.175Z,17.59
2018-09-24T14:55:13.981Z,17.40
2018-09-24T14:57:47.644Z,17.56
2018-09-24T15:00:21.295Z,18.37
2018-09-24T15:02:55.073Z,19.21
2018-09-24T15:05:28.874Z,18.91
2018-09-24T15:08:02.469Z,17.89
2018-09-24T15:10:36.258Z,17.41
2018-09-24T15:13:09.831Z,16.86
2018-09-24T15:15:43.607Z,16.59
2018-09-24T15:18:17.385Z,17.72
2018-09-24T15:20:50.961Z,17.94
2018-09-24T15:23:24.653Z,17.45
2018-09-24T15:25:58.197Z,17.19
2018-09-24T15:28:31.914Z,16.83
2018-09-24T15:31:05.736Z,16.52
2018-09-24T15:33:39.463Z,20.21
2018-09-24T15:36:13.265Z,22.39
2018-09-24T15:38:47.054Z,25.30
2018-09-24T15:41:20.942Z,27.85
2018-09-24T15:43:54.690Z,29.84
2018-09-24T15:46:28.199Z,30.63
2018-09-24T15:49:02.025Z,31.71
2018-09-24T15:51:35.831Z,32.41
2018-09-24T15:54:09.366Z,32.28
2018-09-24T15:56:43.235Z,32.42
2018-09-24T15:59:17.015Z,32.04
2018-09-24T16:01:50.645Z,31.39
2018-09-24T16:04:26.867Z,29.81
2018-09-24T16:07:00.647Z,26.23
2018-09-24T16:09:34.251Z,23.70
2018-09-24T16:12:08.066Z,22.02
2018-09-24T16:14:41.809Z,20.31
2018-09-24T16:17:15.557Z,19.46
2018-09-24T16:19:49.098Z,18.62
2018-09-24T16:22:22.874Z,18.02
2018-09-24T16:24:56.951Z,17.72
2018-09-24T16:27:31.105Z,17.14
2018-09-24T16:30:04.869Z,17.05
2018-09-24T16:32:38.889Z,16.79
2018-09-24T16:35:13.409Z,16.48
2018-09-24T16:37:47.234Z,16.41
2018-09-24T16:40:21.329Z,16.36
2018-09-24T16:42:55.034Z,16.23
2018-09-24T16:45:28.958Z,16.06
2018-09-24T16:48:02.682Z,16.01
2018-09-24T16:50:36.422Z,15.78
2018-09-24T16:53:10.277Z,15.64
2018-09-24T16:55:43.926Z,15.46
2018-09-24T16:58:18.049Z,15.38
2018-09-24T17:00:51.838Z,15.35
2018-09-24T17:03:25.899Z,15.36
2018-09-24T17:05:59.777Z,15.30
2018-09-24T17:08:33.469Z,15.16
2018-09-24T17:11:07.119Z,15.09
2018-09-24T17:13:41.769Z,15.03
2018-09-24T17:16:15.849Z,14.99
2018-09-24T17:18:49.715Z,14.81
2018-09-24T17:21:23.362Z,14.79
2018-09-24T17:23:56.900Z,14.70
2018-09-24T17:26:30.509Z,14.60
2018-09-24T17:29:04.170Z,14.51
2018-09-24T17:31:37.781Z,14.57
2018-09-24T17:34:11.558Z,14.47
2018-09-24T17:36:45.539Z,14.42
2018-09-24T17:39:19.329Z,14.30
2018-09-24T17:41:53.135Z,14.18
2018-09-24T17:44:27.047Z,14.16
2018-09-24T17:47:00.742Z,14.06
2018-09-24T17:49:35.004Z,14.03
2018-09-24T17:52:09.713Z,14.04
2018-09-24T17:54:46.577Z,13.90
2018-09-24T17:57:20.388Z,13.92
2018-09-24T17:59:54.292Z,13.98
2018-09-24T18:02:28.001Z,13.93
2018-09-24T18:05:01.860Z,13.88
2018-09-24T18:07:35.558Z,13.86
2018-09-24T18:10:09.549Z,13.79
2018-09-24T18:12:43.269Z,13.78
2018-09-24T18:15:16.945Z,13.73
2018-09-24T18:17:50.638Z,13.72
2018-09-24T18:20:24.215Z,13.62
2018-09-24T18:22:58.026Z,13.68
2018-09-24T18:25:31.875Z,13.62
2018-09-24T18:28:05.477Z,13.63
2018-09-24T18:30:39.197Z,13.58
2018-09-24T18:33:12.928Z,13.58
2018-09-24T18:35:47.069Z,13.47
2018-09-24T18:38:20.582Z,13.36
2018-09-24T18:40:54.278Z,13.40
2018-09-24T18:43:29.861Z,13.35
2018-09-24T18:46:03.689Z,13.31
2018-09-24T18:48:37.373Z,13.32
2018-09-24T18:51:11.223Z,13.28
2018-09-24T18:53:44.887Z,13.20
2018-09-24T18:56:18.472Z,13.33
2018-09-24T18:58:52.197Z,13.27
2018-09-24T19:01:25.745Z,13.15
2018-09-24T19:03:59.585Z,13.09
2018-09-24T19:06:33.080Z,12.98
2018-09-24T19:09:06.891Z,12.96
2018-09-24T19:11:47.533Z,12.91
2018-09-24T19:14:27.705Z,12.91
2018-09-24T19:17:01.626Z,12.90
2018-09-24T19:19:35.359Z,12.80
2018-09-24T19:22:09.102Z,12.72
2018-09-24T19:24:42.681Z,12.68
2018-09-24T19:27:16.806Z,12.56
2018-09-24T19:29:50.600Z,12.53
2018-09-24T19:32:24.261Z,12.47
2018-09-24T19:34:57.881Z,12.37
2018-09-24T19:37:31.677Z,12.38
2018-09-24T19:40:05.455Z,12.50
2018-09-24T19:42:39.225Z,12.53
2018-09-24T19:45:13.142Z,12.59
2018-09-24T19:47:47.054Z,12.68
2018-09-24T19:50:20.777Z,12.66
2018-09-24T19:52:56.198Z,12.60
2018-09-24T19:55:32.054Z,12.54
2018-09-24T19:58:05.819Z,12.43
2018-09-24T20:00:40.950Z,12.34
2018-09-24T20:03:14.515Z,12.28
2018-09-24T20:05:48.344Z,12.23
2018-09-24T20:08:22.445Z,12.15
2018-09-24T20:10:55.970Z,12.11
2018-09-24T20:13:29.866Z,12.07
2018-09-24T20:16:03.550Z,12.04
2018-09-24T20:18:37.579Z,12.08
2018-09-24T20:21:11.263Z,12.10
2018-09-24T20:23:44.886Z,12.02
2018-09-24T20:26:18.524Z,11.99
2018-09-24T20:28:52.170Z,12.02
2018-09-24T20:31:25.916Z,12.08
2018-09-24T20:33:59.653Z,12.10
2018-09-24T20:36:33.351Z,12.17
2018-09-24T20:39:07.186Z,12.16
2018-09-24T20:41:41.030Z,12.13
2018-09-24T20:44:14.870Z,12.12
2018-09-24T20:46:48.410Z,12.19
2018-09-24T20:49:22.288Z,12.11
2018-09-24T20:51:55.866Z,12.10
2018-09-24T20:54:29.671Z,12.21
2018-09-24T20:57:03.325Z,12.24
2018-09-24T20:59:37.170Z,12.22
2018-09-24T21:02:10.837Z,12.13
2018-09-24T21:04:44.510Z,12.14
2018-09-24T21:07:18.273Z,12.26
2018-09-24T21:09:52.005Z,12.32
2018-09-24T21:12:25.586Z,12.32
2018-09-24T21:14:59.411Z,12.31
2018-09-24T21:17:33.133Z,12.35
2018-09-24T21:20:06.933Z,12.40
2018-09-24T21:22:40.485Z,12.20
2018-09-24T21:25:14.310Z,12.10
2018-09-24T21:27:47.953Z,12.04
2018-09-24T21:30:21.541Z,11.86
2018-09-24T21:32:55.212Z,11.73
2018-09-24T21:35:28.954Z,11.60
2018-09-24T21:38:02.543Z,11.55
2018-09-24T21:40:36.337Z,11.52
2018-09-24T21:43:10.062Z,11.55
2018-09-24T21:45:43.710Z,11.63
2018-09-24T21:48:17.390Z,11.56
2018-09-24T21:50:51.147Z,11.64
2018-09-24T21:53:24.670Z,11.67
2018-09-24T21:55:58.193Z,11.64
2018-09-24T21:58:31.794Z,11.58
2018-09-24T22:01:05.362Z,11.61
2018-09-24T22:03:39.178Z,11.48
2018-09-24T22:06:13.090Z,11.49
2018-09-24T22:08:46.737Z,11.39
2018-09-24T22:11:20.505Z,11.25
2018-09-24T22:13:54.254Z,11.15
2018-09-24T22:16:27.993Z,11.10
2018-09-24T22:19:01.768Z,11.13
2018-09-24T22:21:35.489Z,11.02
2018-09-24T22:24:09.269Z,11.07
2018-09-24T22:26:43.134Z,11.02
2018-09-24T22:29:16.701Z,10.96
2018-09-24T22:31:50.529Z,11.01
2018-09-24T22:34:24.109Z,11.04
2018-09-24T22:36:57.837Z,11.24
2018-09-24T22:39:31.505Z,11.16
2018-09-24T22:42:05.161Z,11.09
2018-09-24T22:44:38.739Z,11.12
2018-09-24T22:47:12.534Z,11.25
2018-09-24T22:49:46.105Z,11.14
2018-09-24T22:52:19.775Z,11.00
2018-09-24T22:54:53.506Z,11.01
2018-09-24T22:57:27.333Z,10.90
2018-09-24T23:00:00.997Z,10.79
2018-09-24T23:02:34.845Z,10.97
2018-09-24T23:05:09.031Z,10.85
2018-09-24T23:07:42.604Z,10.81
2018-09-24T23:10:16.778Z,10.81
2018-09-24T23:12:50.465Z,10.87
2018-09-24T23:15:24.253Z,10.81
2018-09-24T23:17:58.002Z,10.74
2018-09-24T23:20:34.858Z,10.84
2018-09-24T23:23:08.965Z,10.94
2018-09-24T23:25:42.578Z,10.87
2018-09-24T23:28:16.376Z,10.78
2018-09-24T23:30:50.219Z,10.82
2018-09-24T23:33:23.711Z,10.70
2018-09-24T23:35:57.370Z,10.79
2018-09-24T23:38:30.907Z,10.68
2018-09-24T23:41:04.611Z,10.78
2018-09-24T23:43:38.622Z,10.75
2018-09-24T23:46:12.426Z,10.85
2018-09-24T23:48:46.022Z,10.70
2018-09-24T23:51:19.705Z,10.48
2018-09-24T23:53:53.501Z,10.65
2018-09-24T23:56:27.242Z,10.70
2018-09-24T23:59:01.025Z,10.82
